sensor_id;sensor_type;location;lat;lon;timestamp;temperature;humidity
65470;DHT22;52067;50.710;14.492;2023-07-13T00:02:23;19.10;75.45
65470;DHT22;52067;50.710;14.492;2023-07-13T00:04:49;18.97;75.36
65470;DHT22;52067;50.710;14.492;2023-07-13T00:07:14;19.07;74.84
65470;DHT22;52067;50.710;14.492;2023-07-13T00:09:39;19.11;74.68
65470;DHT22;52067;50.710;14.492;2023-07-13T00:12:05;19.14;75.21
65470;DHT22;52067;50.710;14.492;2023-07-13T00:14:32;19.07;75.23
65470;DHT22;52067;50.710;14.492;2023-07-13T00:16:57;18.96;75.97
65470;DHT22;52067;50.710;14.492;2023-07-13T00:19:25;18.70;76.90
65470;DHT22;52067;50.710;14.492;2023-07-13T00:21:50;18.80;76.27
65470;DHT22;52067;50.710;14.492;2023-07-13T00:24:16;19.00;75.19
65470;DHT22;52067;50.710;14.492;2023-07-13T00:26:47;19.11;74.46
65470;DHT22;52067;50.710;14.492;2023-07-13T00:29:12;19.22;73.72
65470;DHT22;52067;50.710;14.492;2023-07-13T00:31:37;19.19;73.44
65470;DHT22;52067;50.710;14.492;2023-07-13T00:34:03;19.27;74.46
65470;DHT22;52067;50.710;14.492;2023-07-13T00:36:29;19.06;75.54
65470;DHT22;52067;50.710;14.492;2023-07-13T00:38:55;19.00;76.47
65470;DHT22;52067;50.710;14.492;2023-07-13T00:41:20;18.70;77.95
65470;DHT22;52067;50.710;14.492;2023-07-13T00:43:45;18.59;77.99
65470;DHT22;52067;50.710;14.492;2023-07-13T00:46:16;18.48;78.79
65470;DHT22;52067;50.710;14.492;2023-07-13T00:48:41;18.73;78.17
65470;DHT22;52067;50.710;14.492;2023-07-13T00:51:09;18.94;76.77
65470;DHT22;52067;50.710;14.492;2023-07-13T00:53:35;18.81;77.10
65470;DHT22;52067;50.710;14.492;2023-07-13T00:56:00;18.71;77.94
65470;DHT22;52067;50.710;14.492;2023-07-13T00:58:25;18.70;78.17
65470;DHT22;52067;50.710;14.492;2023-07-13T01:00:52;18.48;80.69
65470;DHT22;52067;50.710;14.492;2023-07-13T01:03:18;17.91;82.50
65470;DHT22;52067;50.710;14.492;2023-07-13T01:05:43;17.66;84.00
65470;DHT22;52067;50.710;14.492;2023-07-13T01:08:08;17.59;85.09
65470;DHT22;52067;50.710;14.492;2023-07-13T01:10:34;17.69;84.74
65470;DHT22;52067;50.710;14.492;2023-07-13T01:13:04;17.81;84.08
65470;DHT22;52067;50.710;14.492;2023-07-13T01:17:58;18.04;82.25
65470;DHT22;52067;50.710;14.492;2023-07-13T01:20:24;18.13;83.60
65470;DHT22;52067;50.710;14.492;2023-07-13T01:22:49;18.26;81.23
65470;DHT22;52067;50.710;14.492;2023-07-13T01:25:16;18.24;82.26
65470;DHT22;52067;50.710;14.492;2023-07-13T01:27:41;18.29;83.05
65470;DHT22;52067;50.710;14.492;2023-07-13T01:30:06;18.35;83.19
65470;DHT22;52067;50.710;14.492;2023-07-13T01:32:32;18.36;82.22
65470;DHT22;52067;50.710;14.492;2023-07-13T01:34:59;18.53;82.01
65470;DHT22;52067;50.710;14.492;2023-07-13T01:37:24;18.55;82.13
65470;DHT22;52067;50.710;14.492;2023-07-13T01:39:50;18.52;82.96
65470;DHT22;52067;50.710;14.492;2023-07-13T01:42:15;18.45;76.15
65470;DHT22;52067;50.710;14.492;2023-07-13T01:44:40;18.56;75.52
65470;DHT22;52067;50.710;14.492;2023-07-13T01:47:06;18.67;73.58
65470;DHT22;52067;50.710;14.492;2023-07-13T01:49:31;18.61;73.46
65470;DHT22;52067;50.710;14.492;2023-07-13T01:51:57;18.36;76.74
65470;DHT22;52067;50.710;14.492;2023-07-13T01:54:22;17.90;77.08
65470;DHT22;52067;50.710;14.492;2023-07-13T01:56:47;17.39;81.22
65470;DHT22;52067;50.710;14.492;2023-07-13T01:59:13;16.82;84.17
65470;DHT22;52067;50.710;14.492;2023-07-13T02:01:38;16.84;83.09
65470;DHT22;52067;50.710;14.492;2023-07-13T02:04:04;16.82;83.48
65470;DHT22;52067;50.710;14.492;2023-07-13T02:06:29;16.92;83.05
65470;DHT22;52067;50.710;14.492;2023-07-13T02:08:54;17.02;82.70
65470;DHT22;52067;50.710;14.492;2023-07-13T02:11:20;17.06;81.48
65470;DHT22;52067;50.710;14.492;2023-07-13T02:13:45;16.96;81.85
65470;DHT22;52067;50.710;14.492;2023-07-13T02:16:10;17.18;80.59
65470;DHT22;52067;50.710;14.492;2023-07-13T02:18:35;17.19;83.42
65470;DHT22;52067;50.710;14.492;2023-07-13T02:21:01;17.22;83.17
65470;DHT22;52067;50.710;14.492;2023-07-13T02:23:27;17.24;83.41
65470;DHT22;52067;50.710;14.492;2023-07-13T02:25:56;17.46;83.58
65470;DHT22;52067;50.710;14.492;2023-07-13T02:28:22;17.66;82.96
65470;DHT22;52067;50.710;14.492;2023-07-13T02:30:47;17.61;82.91
65470;DHT22;52067;50.710;14.492;2023-07-13T02:33:12;17.57;82.44
65470;DHT22;52067;50.710;14.492;2023-07-13T02:35:38;17.55;81.37
65470;DHT22;52067;50.710;14.492;2023-07-13T02:38:03;17.43;82.42
65470;DHT22;52067;50.710;14.492;2023-07-13T02:40:28;17.50;81.31
65470;DHT22;52067;50.710;14.492;2023-07-13T02:42:54;17.26;82.56
65470;DHT22;52067;50.710;14.492;2023-07-13T02:45:19;17.09;83.42
65470;DHT22;52067;50.710;14.492;2023-07-13T02:47:44;17.15;84.15
65470;DHT22;52067;50.710;14.492;2023-07-13T02:50:10;17.13;84.86
65470;DHT22;52067;50.710;14.492;2023-07-13T02:52:35;16.65;86.88
65470;DHT22;52067;50.710;14.492;2023-07-13T02:55:00;16.78;87.29
65470;DHT22;52067;50.710;14.492;2023-07-13T02:57:26;16.94;85.80
65470;DHT22;52067;50.710;14.492;2023-07-13T02:59:53;16.98;85.34
65470;DHT22;52067;50.710;14.492;2023-07-13T03:02:18;16.69;86.00
65470;DHT22;52067;50.710;14.492;2023-07-13T03:04:43;16.36;87.75
65470;DHT22;52067;50.710;14.492;2023-07-13T03:07:08;16.44;87.95
65470;DHT22;52067;50.710;14.492;2023-07-13T03:09:34;16.63;86.61
65470;DHT22;52067;50.710;14.492;2023-07-13T03:11:59;16.64;86.71
65470;DHT22;52067;50.710;14.492;2023-07-13T03:14:25;16.91;85.92
65470;DHT22;52067;50.710;14.492;2023-07-13T03:16:50;16.95;85.38
65470;DHT22;52067;50.710;14.492;2023-07-13T03:19:17;16.91;85.31
65470;DHT22;52067;50.710;14.492;2023-07-13T03:21:42;17.06;84.68
65470;DHT22;52067;50.710;14.492;2023-07-13T03:24:08;17.16;84.71
65470;DHT22;52067;50.710;14.492;2023-07-13T03:26:33;17.20;84.95
65470;DHT22;52067;50.710;14.492;2023-07-13T03:28:58;17.30;84.48
65470;DHT22;52067;50.710;14.492;2023-07-13T03:31:27;17.29;84.24
65470;DHT22;52067;50.710;14.492;2023-07-13T03:33:54;17.08;83.77
65470;DHT22;52067;50.710;14.492;2023-07-13T03:36:20;17.09;83.71
65470;DHT22;52067;50.710;14.492;2023-07-13T03:38:47;17.18;83.68
65470;DHT22;52067;50.710;14.492;2023-07-13T03:41:13;17.12;82.60
65470;DHT22;52067;50.710;14.492;2023-07-13T03:43:38;17.19;83.16
65470;DHT22;52067;50.710;14.492;2023-07-13T03:46:04;16.95;84.30
65470;DHT22;52067;50.710;14.492;2023-07-13T03:48:29;16.85;85.59
65470;DHT22;52067;50.710;14.492;2023-07-13T03:50:54;16.37;87.09
65470;DHT22;52067;50.710;14.492;2023-07-13T03:53:19;16.20;88.11
65470;DHT22;52067;50.710;14.492;2023-07-13T03:55:45;16.16;88.65
65470;DHT22;52067;50.710;14.492;2023-07-13T03:58:25;16.23;88.51
65470;DHT22;52067;50.710;14.492;2023-07-13T04:00:51;16.27;88.52
65470;DHT22;52067;50.710;14.492;2023-07-13T04:03:17;16.21;88.69
65470;DHT22;52067;50.710;14.492;2023-07-13T04:05:42;16.14;89.02
65470;DHT22;52067;50.710;14.492;2023-07-13T04:08:07;16.16;89.24
65470;DHT22;52067;50.710;14.492;2023-07-13T04:10:33;16.27;88.59
65470;DHT22;52067;50.710;14.492;2023-07-13T04:12:58;16.48;88.43
65470;DHT22;52067;50.710;14.492;2023-07-13T04:15:23;16.53;88.90
65470;DHT22;52067;50.710;14.492;2023-07-13T04:17:48;16.54;88.18
65470;DHT22;52067;50.710;14.492;2023-07-13T04:20:14;16.72;87.55
65470;DHT22;52067;50.710;14.492;2023-07-13T04:22:39;16.61;87.69
65470;DHT22;52067;50.710;14.492;2023-07-13T04:25:04;16.54;88.60
65470;DHT22;52067;50.710;14.492;2023-07-13T04:27:30;16.55;88.67
65470;DHT22;52067;50.710;14.492;2023-07-13T04:29:55;16.82;87.77
65470;DHT22;52067;50.710;14.492;2023-07-13T04:32:20;16.74;87.61
65470;DHT22;52067;50.710;14.492;2023-07-13T04:34:46;16.96;87.27
65470;DHT22;52067;50.710;14.492;2023-07-13T04:37:11;16.74;85.95
65470;DHT22;52067;50.710;14.492;2023-07-13T04:39:36;17.02;86.65
65470;DHT22;52067;50.710;14.492;2023-07-13T04:42:02;17.12;87.12
65470;DHT22;52067;50.710;14.492;2023-07-13T04:44:28;17.06;87.33
65470;DHT22;52067;50.710;14.492;2023-07-13T04:46:53;17.23;87.27
65470;DHT22;52067;50.710;14.492;2023-07-13T04:49:18;17.49;86.67
65470;DHT22;52067;50.710;14.492;2023-07-13T04:51:43;17.40;86.01
65470;DHT22;52067;50.710;14.492;2023-07-13T04:54:09;17.22;87.26
65470;DHT22;52067;50.710;14.492;2023-07-13T04:56:34;17.03;87.55
65470;DHT22;52067;50.710;14.492;2023-07-13T04:58:59;17.09;87.43
65470;DHT22;52067;50.710;14.492;2023-07-13T05:01:25;17.29;87.31
65470;DHT22;52067;50.710;14.492;2023-07-13T05:03:50;17.40;86.49
65470;DHT22;52067;50.710;14.492;2023-07-13T05:06:15;17.54;86.37
65470;DHT22;52067;50.710;14.492;2023-07-13T05:08:41;17.59;85.64
65470;DHT22;52067;50.710;14.492;2023-07-13T05:11:06;17.64;85.06
65470;DHT22;52067;50.710;14.492;2023-07-13T05:13:32;17.61;85.44
65470;DHT22;52067;50.710;14.492;2023-07-13T05:16:06;17.87;84.99
65470;DHT22;52067;50.710;14.492;2023-07-13T05:18:32;18.06;84.98
65470;DHT22;52067;50.710;14.492;2023-07-13T05:20:58;18.18;84.14
65470;DHT22;52067;50.710;14.492;2023-07-13T05:23:24;18.24;83.06
65470;DHT22;52067;50.710;14.492;2023-07-13T05:25:49;18.02;84.77
65470;DHT22;52067;50.710;14.492;2023-07-13T05:28:15;18.02;84.02
65470;DHT22;52067;50.710;14.492;2023-07-13T05:30:42;17.87;82.89
65470;DHT22;52067;50.710;14.492;2023-07-13T05:33:09;17.73;84.50
65470;DHT22;52067;50.710;14.492;2023-07-13T05:35:35;17.77;86.10
65470;DHT22;52067;50.710;14.492;2023-07-13T05:38:00;17.85;85.64
65470;DHT22;52067;50.710;14.492;2023-07-13T05:40:25;17.97;84.51
65470;DHT22;52067;50.710;14.492;2023-07-13T05:42:50;17.88;85.35
65470;DHT22;52067;50.710;14.492;2023-07-13T05:45:16;18.02;84.72
65470;DHT22;52067;50.710;14.492;2023-07-13T05:47:41;18.36;84.19
65470;DHT22;52067;50.710;14.492;2023-07-13T05:50:06;18.46;82.10
65470;DHT22;52067;50.710;14.492;2023-07-13T05:52:32;18.60;80.96
65470;DHT22;52067;50.710;14.492;2023-07-13T05:54:57;18.81;81.34
65470;DHT22;52067;50.710;14.492;2023-07-13T05:57:22;18.57;81.33
65470;DHT22;52067;50.710;14.492;2023-07-13T05:59:47;18.63;82.12
65470;DHT22;52067;50.710;14.492;2023-07-13T06:02:13;18.59;81.16
65470;DHT22;52067;50.710;14.492;2023-07-13T06:04:38;18.60;82.77
65470;DHT22;52067;50.710;14.492;2023-07-13T06:07:04;19.18;80.37
65470;DHT22;52067;50.710;14.492;2023-07-13T06:09:29;19.36;79.27
65470;DHT22;52067;50.710;14.492;2023-07-13T06:11:54;19.76;78.07
65470;DHT22;52067;50.710;14.492;2023-07-13T06:14:20;19.59;78.50
65470;DHT22;52067;50.710;14.492;2023-07-13T06:16:45;19.66;78.26
65470;DHT22;52067;50.710;14.492;2023-07-13T06:19:10;19.51;77.76
65470;DHT22;52067;50.710;14.492;2023-07-13T06:21:36;19.54;79.22
65470;DHT22;52067;50.710;14.492;2023-07-13T06:24:01;19.47;79.84
65470;DHT22;52067;50.710;14.492;2023-07-13T06:26:26;19.62;77.15
65470;DHT22;52067;50.710;14.492;2023-07-13T06:28:52;19.68;78.61
65470;DHT22;52067;50.710;14.492;2023-07-13T06:31:18;19.69;80.50
65470;DHT22;52067;50.710;14.492;2023-07-13T06:33:44;19.63;78.89
65470;DHT22;52067;50.710;14.492;2023-07-13T06:36:09;20.09;77.48
65470;DHT22;52067;50.710;14.492;2023-07-13T06:38:35;20.18;74.72
65470;DHT22;52067;50.710;14.492;2023-07-13T06:41:00;20.12;75.17
65470;DHT22;52067;50.710;14.492;2023-07-13T06:43:26;20.12;76.48
65470;DHT22;52067;50.710;14.492;2023-07-13T06:45:53;20.06;75.54
65470;DHT22;52067;50.710;14.492;2023-07-13T06:48:19;20.28;75.40
65470;DHT22;52067;50.710;14.492;2023-07-13T06:50:45;20.09;75.27
65470;DHT22;52067;50.710;14.492;2023-07-13T06:53:10;20.14;75.89
65470;DHT22;52067;50.710;14.492;2023-07-13T06:55:36;20.35;76.11
65470;DHT22;52067;50.710;14.492;2023-07-13T06:58:01;20.18;76.90
65470;DHT22;52067;50.710;14.492;2023-07-13T07:00:26;20.12;77.18
65470;DHT22;52067;50.710;14.492;2023-07-13T07:02:51;20.27;77.99
65470;DHT22;52067;50.710;14.492;2023-07-13T07:05:17;20.45;77.48
65470;DHT22;52067;50.710;14.492;2023-07-13T07:07:42;20.58;76.58
65470;DHT22;52067;50.710;14.492;2023-07-13T07:10:07;20.44;77.59
65470;DHT22;52067;50.710;14.492;2023-07-13T07:12:33;20.28;78.43
65470;DHT22;52067;50.710;14.492;2023-07-13T07:14:58;20.49;75.91
65470;DHT22;52067;50.710;14.492;2023-07-13T07:17:23;20.54;75.77
65470;DHT22;52067;50.710;14.492;2023-07-13T07:19:50;20.76;75.56
65470;DHT22;52067;50.710;14.492;2023-07-13T07:22:15;20.72;76.22
65470;DHT22;52067;50.710;14.492;2023-07-13T07:24:40;20.98;74.32
65470;DHT22;52067;50.710;14.492;2023-07-13T07:27:06;20.65;74.35
65470;DHT22;52067;50.710;14.492;2023-07-13T07:29:31;21.07;74.04
65470;DHT22;52067;50.710;14.492;2023-07-13T07:31:56;21.18;72.62
65470;DHT22;52067;50.710;14.492;2023-07-13T07:34:23;21.03;73.40
65470;DHT22;52067;50.710;14.492;2023-07-13T07:36:49;21.13;73.17
65470;DHT22;52067;50.710;14.492;2023-07-13T07:39:14;21.05;71.47
65470;DHT22;52067;50.710;14.492;2023-07-13T07:41:39;21.13;73.55
65470;DHT22;52067;50.710;14.492;2023-07-13T07:44:05;21.39;71.54
65470;DHT22;52067;50.710;14.492;2023-07-13T07:46:32;21.55;71.44
65470;DHT22;52067;50.710;14.492;2023-07-13T07:48:57;21.67;69.14
65470;DHT22;52067;50.710;14.492;2023-07-13T07:51:23;21.88;68.59
65470;DHT22;52067;50.710;14.492;2023-07-13T07:53:48;22.26;65.30
65470;DHT22;52067;50.710;14.492;2023-07-13T07:56:13;22.36;62.49
65470;DHT22;52067;50.710;14.492;2023-07-13T07:58:41;22.22;62.52
65470;DHT22;52067;50.710;14.492;2023-07-13T08:01:06;22.25;62.99
65470;DHT22;52067;50.710;14.492;2023-07-13T08:03:32;22.36;61.37
65470;DHT22;52067;50.710;14.492;2023-07-13T08:05:57;22.50;62.77
65470;DHT22;52067;50.710;14.492;2023-07-13T08:08:23;22.55;62.62
65470;DHT22;52067;50.710;14.492;2023-07-13T08:10:48;22.56;61.48
65470;DHT22;52067;50.710;14.492;2023-07-13T08:13:13;22.40;64.19
65470;DHT22;52067;50.710;14.492;2023-07-13T08:15:39;22.32;62.20
65470;DHT22;52067;50.710;14.492;2023-07-13T08:18:05;22.46;62.10
65470;DHT22;52067;50.710;14.492;2023-07-13T08:20:30;22.61;63.36
65470;DHT22;52067;50.710;14.492;2023-07-13T08:22:56;22.81;63.77
65470;DHT22;52067;50.710;14.492;2023-07-13T08:25:21;23.34;61.95
65470;DHT22;52067;50.710;14.492;2023-07-13T08:27:47;23.37;58.74
65470;DHT22;52067;50.710;14.492;2023-07-13T08:30:13;22.76;60.31
65470;DHT22;52067;50.710;14.492;2023-07-13T08:32:38;23.39;57.32
65470;DHT22;52067;50.710;14.492;2023-07-13T08:35:04;22.94;61.06
65470;DHT22;52067;50.710;14.492;2023-07-13T08:37:29;23.72;58.73
65470;DHT22;52067;50.710;14.492;2023-07-13T08:39:54;23.82;56.59
65470;DHT22;52067;50.710;14.492;2023-07-13T08:47:19;23.87;57.81
65470;DHT22;52067;50.710;14.492;2023-07-13T08:49:46;24.04;55.62
65470;DHT22;52067;50.710;14.492;2023-07-13T08:52:13;23.94;53.08
65470;DHT22;52067;50.710;14.492;2023-07-13T08:54:45;23.87;56.06
65470;DHT22;52067;50.710;14.492;2023-07-13T08:57:19;23.63;54.28
65470;DHT22;52067;50.710;14.492;2023-07-13T08:59:44;23.44;57.58
65470;DHT22;52067;50.710;14.492;2023-07-13T09:02:32;23.75;56.09
65470;DHT22;52067;50.710;14.492;2023-07-13T09:05:01;23.76;55.68
65470;DHT22;52067;50.710;14.492;2023-07-13T09:10:16;23.82;52.55
65470;DHT22;52067;50.710;14.492;2023-07-13T09:15:21;24.27;50.50
65470;DHT22;52067;50.710;14.492;2023-07-13T09:17:49;24.14;49.44
65470;DHT22;52067;50.710;14.492;2023-07-13T09:20:23;24.12;54.40
65470;DHT22;52067;50.710;14.492;2023-07-13T09:22:50;24.28;53.23
65470;DHT22;52067;50.710;14.492;2023-07-13T09:25:34;24.33;48.53
65470;DHT22;52067;50.710;14.492;2023-07-13T09:28:00;23.90;50.11
65470;DHT22;52067;50.710;14.492;2023-07-13T09:30:30;23.97;49.74
65470;DHT22;52067;50.710;14.492;2023-07-13T09:32:58;24.40;49.30
65470;DHT22;52067;50.710;14.492;2023-07-13T09:35:25;24.21;52.14
65470;DHT22;52067;50.710;14.492;2023-07-13T09:37:56;24.14;52.66
65470;DHT22;52067;50.710;14.492;2023-07-13T09:40:24;24.61;50.27
65470;DHT22;52067;50.710;14.492;2023-07-13T09:42:53;24.43;45.67
65470;DHT22;52067;50.710;14.492;2023-07-13T09:45:28;25.03;48.20
65470;DHT22;52067;50.710;14.492;2023-07-13T09:48:03;25.13;45.33
65470;DHT22;52067;50.710;14.492;2023-07-13T09:50:29;24.65;46.98
65470;DHT22;52067;50.710;14.492;2023-07-13T09:52:54;25.63;46.83
65470;DHT22;52067;50.710;14.492;2023-07-13T09:55:29;25.88;45.04
65470;DHT22;52067;50.710;14.492;2023-07-13T09:57:55;25.44;47.31
65470;DHT22;52067;50.710;14.492;2023-07-13T10:00:22;25.37;45.15
65470;DHT22;52067;50.710;14.492;2023-07-13T10:02:52;26.12;41.46
65470;DHT22;52067;50.710;14.492;2023-07-13T10:05:22;26.67;42.93
65470;DHT22;52067;50.710;14.492;2023-07-13T10:07:49;26.59;40.88
65470;DHT22;52067;50.710;14.492;2023-07-13T10:10:19;26.86;41.47
65470;DHT22;52067;50.710;14.492;2023-07-13T10:12:45;26.79;46.94
65470;DHT22;52067;50.710;14.492;2023-07-13T10:15:14;26.35;43.71
65470;DHT22;52067;50.710;14.492;2023-07-13T10:17:39;26.63;44.95
65470;DHT22;52067;50.710;14.492;2023-07-13T10:20:05;26.21;41.78
65470;DHT22;52067;50.710;14.492;2023-07-13T10:22:52;26.16;45.04
65470;DHT22;52067;50.710;14.492;2023-07-13T10:25:20;26.24;43.12
65470;DHT22;52067;50.710;14.492;2023-07-13T10:27:47;25.27;43.86
65470;DHT22;52067;50.710;14.492;2023-07-13T10:30:18;26.15;43.37
65470;DHT22;52067;50.710;14.492;2023-07-13T10:32:48;26.11;42.23
65470;DHT22;52067;50.710;14.492;2023-07-13T10:35:15;27.01;42.32
65470;DHT22;52067;50.710;14.492;2023-07-13T10:40:12;26.52;44.29
65470;DHT22;52067;50.710;14.492;2023-07-13T10:42:39;27.27;42.72
65470;DHT22;52067;50.710;14.492;2023-07-13T10:45:20;27.67;42.12
65470;DHT22;52067;50.710;14.492;2023-07-13T10:47:46;27.83;44.23
65470;DHT22;52067;50.710;14.492;2023-07-13T10:50:15;27.46;48.49
65470;DHT22;52067;50.710;14.492;2023-07-13T10:52:46;27.24;41.90
65470;DHT22;52067;50.710;14.492;2023-07-13T10:57:55;25.59;46.72
65470;DHT22;52067;50.710;14.492;2023-07-13T11:00:24;25.84;46.92
65470;DHT22;52067;50.710;14.492;2023-07-13T11:02:56;26.36;46.12
65470;DHT22;52067;50.710;14.492;2023-07-13T11:05:26;26.42;46.93
65470;DHT22;52067;50.710;14.492;2023-07-13T11:08:02;26.14;48.89
65470;DHT22;52067;50.710;14.492;2023-07-13T11:13:35;26.61;46.93
65470;DHT22;52067;50.710;14.492;2023-07-13T11:15:56;28.24;42.71
65470;DHT22;52067;50.710;14.492;2023-07-13T11:18:23;27.18;44.68
65470;DHT22;52067;50.710;14.492;2023-07-13T11:20:49;27.90;41.00
65470;DHT22;52067;50.710;14.492;2023-07-13T11:25:43;28.75;37.26
65470;DHT22;52067;50.710;14.492;2023-07-13T11:33:14;26.60;44.17
65470;DHT22;52067;50.710;14.492;2023-07-13T11:38:18;28.04;39.15
65470;DHT22;52067;50.710;14.492;2023-07-13T11:40:45;30.64;34.22
65470;DHT22;52067;50.710;14.492;2023-07-13T11:43:12;31.35;31.74
65470;DHT22;52067;50.710;14.492;2023-07-13T11:45:38;30.08;34.70
65470;DHT22;52067;50.710;14.492;2023-07-13T11:48:03;31.14;35.72
65470;DHT22;52067;50.710;14.492;2023-07-13T11:50:29;32.17;31.72
65470;DHT22;52067;50.710;14.492;2023-07-13T11:52:54;31.46;35.02
65470;DHT22;52067;50.710;14.492;2023-07-13T11:55:21;28.85;39.09
65470;DHT22;52067;50.710;14.492;2023-07-13T11:57:54;29.63;37.90
65470;DHT22;52067;50.710;14.492;2023-07-13T12:00:22;29.39;34.52
65470;DHT22;52067;50.710;14.492;2023-07-13T12:02:49;29.03;36.67
65470;DHT22;52067;50.710;14.492;2023-07-13T12:05:17;27.83;39.21
65470;DHT22;52067;50.710;14.492;2023-07-13T12:07:43;26.94;44.03
65470;DHT22;52067;50.710;14.492;2023-07-13T12:12:34;26.53;41.63
65470;DHT22;52067;50.710;14.492;2023-07-13T12:15:00;26.55;40.80
65470;DHT22;52067;50.710;14.492;2023-07-13T12:17:25;26.53;42.29
65470;DHT22;52067;50.710;14.492;2023-07-13T12:19:51;26.14;43.58
65470;DHT22;52067;50.710;14.492;2023-07-13T12:22:18;24.95;44.02
65470;DHT22;52067;50.710;14.492;2023-07-13T12:24:44;25.18;44.85
65470;DHT22;52067;50.710;14.492;2023-07-13T12:27:17;24.78;46.10
65470;DHT22;52067;50.710;14.492;2023-07-13T12:29:48;25.01;46.53
65470;DHT22;52067;50.710;14.492;2023-07-13T12:32:16;24.76;44.50
65470;DHT22;52067;50.710;14.492;2023-07-13T12:34:55;24.64;44.45
65470;DHT22;52067;50.710;14.492;2023-07-13T12:37:21;24.51;45.67
65470;DHT22;52067;50.710;14.492;2023-07-13T12:39:47;25.43;44.30
65470;DHT22;52067;50.710;14.492;2023-07-13T12:42:24;25.60;43.65
65470;DHT22;52067;50.710;14.492;2023-07-13T12:44:53;25.29;45.86
65470;DHT22;52067;50.710;14.492;2023-07-13T12:47:19;24.34;50.99
65470;DHT22;52067;50.710;14.492;2023-07-13T12:49:49;24.45;45.74
65470;DHT22;52067;50.710;14.492;2023-07-13T12:52:28;24.95;48.34
65470;DHT22;52067;50.710;14.492;2023-07-13T12:54:58;26.22;47.24
65470;DHT22;52067;50.710;14.492;2023-07-13T12:57:25;27.74;41.25
65470;DHT22;52067;50.710;14.492;2023-07-13T12:59:55;27.82;40.22
65470;DHT22;52067;50.710;14.492;2023-07-13T13:04:48;31.30;33.04
65470;DHT22;52067;50.710;14.492;2023-07-13T13:07:13;30.93;36.11
65470;DHT22;52067;50.710;14.492;2023-07-13T13:09:39;32.23;30.78
65470;DHT22;52067;50.710;14.492;2023-07-13T13:12:04;32.89;31.10
65470;DHT22;52067;50.710;14.492;2023-07-13T13:14:30;31.10;33.03
65470;DHT22;52067;50.710;14.492;2023-07-13T13:16:55;30.35;34.34
65470;DHT22;52067;50.710;14.492;2023-07-13T13:19:25;30.76;35.24
65470;DHT22;52067;50.710;14.492;2023-07-13T13:21:52;29.19;40.05
65470;DHT22;52067;50.710;14.492;2023-07-13T13:24:19;28.07;38.03
65470;DHT22;52067;50.710;14.492;2023-07-13T13:26:45;28.06;37.44
65470;DHT22;52067;50.710;14.492;2023-07-13T13:29:23;29.18;35.85
65470;DHT22;52067;50.710;14.492;2023-07-13T13:31:51;28.04;37.86
65470;DHT22;52067;50.710;14.492;2023-07-13T13:34:17;28.76;37.22
65470;DHT22;52067;50.710;14.492;2023-07-13T13:36:44;30.49;34.34
65470;DHT22;52067;50.710;14.492;2023-07-13T13:39:20;31.15;36.16
65470;DHT22;52067;50.710;14.492;2023-07-13T13:41:46;31.04;35.68
65470;DHT22;52067;50.710;14.492;2023-07-13T13:44:13;31.17;34.63
65470;DHT22;52067;50.710;14.492;2023-07-13T13:46:38;31.35;35.79
65470;DHT22;52067;50.710;14.492;2023-07-13T13:49:04;31.45;34.85
65470;DHT22;52067;50.710;14.492;2023-07-13T13:51:29;29.70;37.04
65470;DHT22;52067;50.710;14.492;2023-07-13T13:53:55;29.15;38.31
65470;DHT22;52067;50.710;14.492;2023-07-13T13:56:20;30.37;36.83
65470;DHT22;52067;50.710;14.492;2023-07-13T13:58:45;30.95;35.08
65470;DHT22;52067;50.710;14.492;2023-07-13T14:01:12;31.34;34.34
65470;DHT22;52067;50.710;14.492;2023-07-13T14:03:39;32.65;31.51
65470;DHT22;52067;50.710;14.492;2023-07-13T14:06:04;33.97;29.74
65470;DHT22;52067;50.710;14.492;2023-07-13T14:08:30;34.47;30.23
65470;DHT22;52067;50.710;14.492;2023-07-13T14:10:56;35.57;27.74
65470;DHT22;52067;50.710;14.492;2023-07-13T14:13:23;34.27;31.59
65470;DHT22;52067;50.710;14.492;2023-07-13T14:15:51;31.72;34.38
65470;DHT22;52067;50.710;14.492;2023-07-13T14:18:16;30.49;37.62
65470;DHT22;52067;50.710;14.492;2023-07-13T14:20:43;33.45;31.12
65470;DHT22;52067;50.710;14.492;2023-07-13T14:23:09;31.53;31.98
65470;DHT22;52067;50.710;14.492;2023-07-13T14:25:34;30.77;33.33
65470;DHT22;52067;50.710;14.492;2023-07-13T14:28:00;30.76;32.67
65470;DHT22;52067;50.710;14.492;2023-07-13T14:30:29;27.14;40.62
65470;DHT22;52067;50.710;14.492;2023-07-13T14:32:54;28.40;39.17
65470;DHT22;52067;50.710;14.492;2023-07-13T14:35:20;27.72;38.83
65470;DHT22;52067;50.710;14.492;2023-07-13T14:37:46;27.45;40.46
65470;DHT22;52067;50.710;14.492;2023-07-13T14:40:30;28.39;38.56
65470;DHT22;52067;50.710;14.492;2023-07-13T14:42:56;28.65;37.07
65470;DHT22;52067;50.710;14.492;2023-07-13T14:45:22;28.61;36.88
65470;DHT22;52067;50.710;14.492;2023-07-13T14:47:47;27.89;38.52
65470;DHT22;52067;50.710;14.492;2023-07-13T14:50:17;27.31;40.95
65470;DHT22;52067;50.710;14.492;2023-07-13T14:52:43;27.96;38.48
65470;DHT22;52067;50.710;14.492;2023-07-13T14:55:12;28.06;37.86
65470;DHT22;52067;50.710;14.492;2023-07-13T14:57:38;27.86;40.03
65470;DHT22;52067;50.710;14.492;2023-07-13T15:00:04;26.25;43.47
65470;DHT22;52067;50.710;14.492;2023-07-13T15:02:32;27.72;43.00
65470;DHT22;52067;50.710;14.492;2023-07-13T15:04:57;26.11;43.20
65470;DHT22;52067;50.710;14.492;2023-07-13T15:07:23;25.78;44.14
65470;DHT22;52067;50.710;14.492;2023-07-13T15:09:49;26.25;42.38
65470;DHT22;52067;50.710;14.492;2023-07-13T15:12:15;26.63;40.28
65470;DHT22;52067;50.710;14.492;2023-07-13T15:14:41;26.67;40.09
65470;DHT22;52067;50.710;14.492;2023-07-13T15:17:14;26.43;42.17
65470;DHT22;52067;50.710;14.492;2023-07-13T15:19:43;26.45;41.96
65470;DHT22;52067;50.710;14.492;2023-07-13T15:22:09;26.45;41.78
65470;DHT22;52067;50.710;14.492;2023-07-13T15:24:34;27.12;42.02
65470;DHT22;52067;50.710;14.492;2023-07-13T15:26:59;26.79;41.60
65470;DHT22;52067;50.710;14.492;2023-07-13T15:29:25;26.57;43.42
65470;DHT22;52067;50.710;14.492;2023-07-13T15:31:50;27.48;39.18
65470;DHT22;52067;50.710;14.492;2023-07-13T15:34:19;29.26;37.34
65470;DHT22;52067;50.710;14.492;2023-07-13T15:36:46;28.04;39.33
65470;DHT22;52067;50.710;14.492;2023-07-13T15:39:15;27.37;41.85
65470;DHT22;52067;50.710;14.492;2023-07-13T15:41:44;27.86;39.84
65470;DHT22;52067;50.710;14.492;2023-07-13T15:47:11;28.11;37.27
65470;DHT22;52067;50.710;14.492;2023-07-13T15:49:38;27.76;38.30
65470;DHT22;52067;50.710;14.492;2023-07-13T15:52:03;27.00;41.15